sensor_id;sensor_type;location;lat;lon;timestamp;temperature;humidity
22002;DHT22;11165;51.278;12.398;2022-10-14T00:01:33;12.50;99.90
22002;DHT22;11165;51.278;12.398;2022-10-14T00:03:59;12.50;99.90
22002;DHT22;11165;51.278;12.398;2022-10-14T00:06:31;12.60;99.90
22002;DHT22;11165;51.278;12.398;2022-10-14T00:09:00;12.70;99.90
22002;DHT22;11165;51.278;12.398;2022-10-14T00:11:29;12.70;99.90
22002;DHT22;11165;51.278;12.398;2022-10-14T00:14:00;12.60;99.90
22002;DHT22;11165;51.278;12.398;2022-10-14T00:16:29;12.60;99.90
22002;DHT22;11165;51.278;12.398;2022-10-14T00:18:55;12.60;99.90
22002;DHT22;11165;51.278;12.398;2022-10-14T00:21:21;12.50;99.90
22002;DHT22;11165;51.278;12.398;2022-10-14T00:23:47;12.60;99.90
22002;DHT22;11165;51.278;12.398;2022-10-14T00:26:18;12.50;99.90
22002;DHT22;11165;51.278;12.398;2022-10-14T00:28:44;12.60;99.90
22002;DHT22;11165;51.278;12.398;2022-10-14T00:31:09;12.60;99.90
22002;DHT22;11165;51.278;12.398;2022-10-14T00:33:35;12.50;99.90
22002;DHT22;11165;51.278;12.398;2022-10-14T00:36:03;12.50;99.90
22002;DHT22;11165;51.278;12.398;2022-10-14T00:38:29;12.60;99.90
22002;DHT22;11165;51.278;12.398;2022-10-14T00:40:55;12.60;99.90
22002;DHT22;11165;51.278;12.398;2022-10-14T00:43:23;12.70;99.90
22002;DHT22;11165;51.278;12.398;2022-10-14T00:45:48;12.70;99.90
22002;DHT22;11165;51.278;12.398;2022-10-14T00:48:16;12.70;99.90
22002;DHT22;11165;51.278;12.398;2022-10-14T00:50:44;12.70;99.90
22002;DHT22;11165;51.278;12.398;2022-10-14T00:53:12;12.70;99.90
22002;DHT22;11165;51.278;12.398;2022-10-14T00:55:39;12.70;99.90
22002;DHT22;11165;51.278;12.398;2022-10-14T00:58:08;12.70;99.90
22002;DHT22;11165;51.278;12.398;2022-10-14T01:00:34;12.80;99.90
22002;DHT22;11165;51.278;12.398;2022-10-14T01:03:00;12.70;99.90
22002;DHT22;11165;51.278;12.398;2022-10-14T01:05:33;12.80;99.90
22002;DHT22;11165;51.278;12.398;2022-10-14T01:08:09;12.80;99.90
22002;DHT22;11165;51.278;12.398;2022-10-14T01:13:40;12.80;99.90
22002;DHT22;11165;51.278;12.398;2022-10-14T01:16:16;12.70;99.90
22002;DHT22;11165;51.278;12.398;2022-10-14T01:21:45;12.60;99.90
22002;DHT22;11165;51.278;12.398;2022-10-14T01:24:43;12.70;99.90
22002;DHT22;11165;51.278;12.398;2022-10-14T01:30:16;12.50;99.90
22002;DHT22;11165;51.278;12.398;2022-10-14T01:32:53;12.50;99.90
22002;DHT22;11165;51.278;12.398;2022-10-14T01:35:33;12.60;99.90
22002;DHT22;11165;51.278;12.398;2022-10-14T01:38:09;12.60;99.90
22002;DHT22;11165;51.278;12.398;2022-10-14T01:40:48;12.60;99.90
22002;DHT22;11165;51.278;12.398;2022-10-14T01:43:16;12.60;99.90
22002;DHT22;11165;51.278;12.398;2022-10-14T01:45:44;12.60;99.90
22002;DHT22;11165;51.278;12.398;2022-10-14T01:48:15;12.50;99.90
22002;DHT22;11165;51.278;12.398;2022-10-14T01:50:42;12.60;99.90
22002;DHT22;11165;51.278;12.398;2022-10-14T01:53:13;12.70;99.90
22002;DHT22;11165;51.278;12.398;2022-10-14T01:55:43;12.70;99.90
22002;DHT22;11165;51.278;12.398;2022-10-14T01:58:11;12.70;99.90
22002;DHT22;11165;51.278;12.398;2022-10-14T02:00:38;12.70;99.90
22002;DHT22;11165;51.278;12.398;2022-10-14T02:03:03;12.80;99.90
22002;DHT22;11165;51.278;12.398;2022-10-14T02:06:05;12.80;99.90
22002;DHT22;11165;51.278;12.398;2022-10-14T02:11:37;12.90;99.90
22002;DHT22;11165;51.278;12.398;2022-10-14T02:14:23;12.90;99.90
22002;DHT22;11165;51.278;12.398;2022-10-14T02:17:09;12.80;99.90
22002;DHT22;11165;51.278;12.398;2022-10-14T02:19:48;12.80;99.90
22002;DHT22;11165;51.278;12.398;2022-10-14T02:22:37;12.80;99.90
22002;DHT22;11165;51.278;12.398;2022-10-14T02:25:16;12.80;99.90
22002;DHT22;11165;51.278;12.398;2022-10-14T02:27:44;12.90;99.90
22002;DHT22;11165;51.278;12.398;2022-10-14T02:30:11;12.80;99.90
22002;DHT22;11165;51.278;12.398;2022-10-14T02:32:38;12.80;99.90
22002;DHT22;11165;51.278;12.398;2022-10-14T02:35:04;12.70;99.90
22002;DHT22;11165;51.278;12.398;2022-10-14T02:37:32;12.60;99.90
22002;DHT22;11165;51.278;12.398;2022-10-14T02:40:04;12.50;99.90
22002;DHT22;11165;51.278;12.398;2022-10-14T02:42:32;12.40;99.90
22002;DHT22;11165;51.278;12.398;2022-10-14T02:44:59;12.50;99.90
22002;DHT22;11165;51.278;12.398;2022-10-14T02:47:26;12.60;99.90
22002;DHT22;11165;51.278;12.398;2022-10-14T02:49:51;12.60;99.90
22002;DHT22;11165;51.278;12.398;2022-10-14T02:52:17;12.50;99.90
22002;DHT22;11165;51.278;12.398;2022-10-14T02:54:43;12.50;99.90
22002;DHT22;11165;51.278;12.398;2022-10-14T02:57:09;12.50;99.90
22002;DHT22;11165;51.278;12.398;2022-10-14T02:59:34;12.40;99.90
22002;DHT22;11165;51.278;12.398;2022-10-14T03:02:00;12.40;99.90
22002;DHT22;11165;51.278;12.398;2022-10-14T03:04:25;12.40;99.90
22002;DHT22;11165;51.278;12.398;2022-10-14T03:06:51;12.50;99.90
22002;DHT22;11165;51.278;12.398;2022-10-14T03:09:17;12.50;99.90
22002;DHT22;11165;51.278;12.398;2022-10-14T03:11:42;12.50;99.90
22002;DHT22;11165;51.278;12.398;2022-10-14T03:14:08;12.50;99.90
22002;DHT22;11165;51.278;12.398;2022-10-14T03:16:33;12.40;99.90
22002;DHT22;11165;51.278;12.398;2022-10-14T03:18:59;12.50;99.90
22002;DHT22;11165;51.278;12.398;2022-10-14T03:21:24;12.60;99.90
22002;DHT22;11165;51.278;12.398;2022-10-14T03:23:50;12.60;99.90
22002;DHT22;11165;51.278;12.398;2022-10-14T03:26:16;12.60;99.90
22002;DHT22;11165;51.278;12.398;2022-10-14T03:28:42;12.50;99.90
22002;DHT22;11165;51.278;12.398;2022-10-14T03:31:07;12.50;99.90
22002;DHT22;11165;51.278;12.398;2022-10-14T03:33:33;12.50;99.90
22002;DHT22;11165;51.278;12.398;2022-10-14T03:35:58;12.60;99.90
22002;DHT22;11165;51.278;12.398;2022-10-14T03:38:24;12.60;99.90
22002;DHT22;11165;51.278;12.398;2022-10-14T03:40:49;12.60;99.90
22002;DHT22;11165;51.278;12.398;2022-10-14T03:43:15;12.60;99.90
22002;DHT22;11165;51.278;12.398;2022-10-14T03:45:43;12.60;99.90
22002;DHT22;11165;51.278;12.398;2022-10-14T03:48:08;12.60;99.90
22002;DHT22;11165;51.278;12.398;2022-10-14T03:50:34;12.60;99.90
22002;DHT22;11165;51.278;12.398;2022-10-14T03:52:59;12.70;99.90
22002;DHT22;11165;51.278;12.398;2022-10-14T03:55:25;12.70;99.90
22002;DHT22;11165;51.278;12.398;2022-10-14T03:57:50;12.80;99.90
22002;DHT22;11165;51.278;12.398;2022-10-14T04:00:16;12.80;99.90
22002;DHT22;11165;51.278;12.398;2022-10-14T04:02:42;12.70;99.90
22002;DHT22;11165;51.278;12.398;2022-10-14T04:05:08;12.70;99.90
22002;DHT22;11165;51.278;12.398;2022-10-14T04:07:34;12.70;99.90
22002;DHT22;11165;51.278;12.398;2022-10-14T04:10:00;12.70;99.90
22002;DHT22;11165;51.278;12.398;2022-10-14T04:12:25;12.60;99.90
22002;DHT22;11165;51.278;12.398;2022-10-14T04:14:51;12.70;99.90
22002;DHT22;11165;51.278;12.398;2022-10-14T04:17:16;12.60;99.90
22002;DHT22;11165;51.278;12.398;2022-10-14T04:19:42;12.70;99.90
22002;DHT22;11165;51.278;12.398;2022-10-14T04:22:08;12.70;99.90
22002;DHT22;11165;51.278;12.398;2022-10-14T04:24:34;12.70;99.90
22002;DHT22;11165;51.278;12.398;2022-10-14T04:26:59;12.70;99.90
22002;DHT22;11165;51.278;12.398;2022-10-14T04:29:25;12.60;99.90
22002;DHT22;11165;51.278;12.398;2022-10-14T04:31:50;12.60;99.90
22002;DHT22;11165;51.278;12.398;2022-10-14T04:34:16;12.60;99.90
22002;DHT22;11165;51.278;12.398;2022-10-14T04:36:41;12.70;99.90
22002;DHT22;11165;51.278;12.398;2022-10-14T04:39:07;12.60;99.90
22002;DHT22;11165;51.278;12.398;2022-10-14T04:41:32;12.60;99.90
22002;DHT22;11165;51.278;12.398;2022-10-14T04:43:58;12.50;99.90
22002;DHT22;11165;51.278;12.398;2022-10-14T04:46:23;12.60;99.90
22002;DHT22;11165;51.278;12.398;2022-10-14T04:48:49;12.60;99.90
22002;DHT22;11165;51.278;12.398;2022-10-14T04:51:14;12.60;99.90
22002;DHT22;11165;51.278;12.398;2022-10-14T04:53:40;12.70;99.90
22002;DHT22;11165;51.278;12.398;2022-10-14T04:56:06;12.70;99.90
22002;DHT22;11165;51.278;12.398;2022-10-14T04:58:31;12.70;99.90
22002;DHT22;11165;51.278;12.398;2022-10-14T05:00:57;12.70;99.90
22002;DHT22;11165;51.278;12.398;2022-10-14T05:03:22;12.70;99.90
22002;DHT22;11165;51.278;12.398;2022-10-14T05:05:49;12.70;99.90
22002;DHT22;11165;51.278;12.398;2022-10-14T05:08:15;12.70;99.90
22002;DHT22;11165;51.278;12.398;2022-10-14T05:10:40;12.70;99.90
22002;DHT22;11165;51.278;12.398;2022-10-14T05:13:06;12.60;99.90
22002;DHT22;11165;51.278;12.398;2022-10-14T05:15:33;12.60;99.90
22002;DHT22;11165;51.278;12.398;2022-10-14T05:17:58;12.70;99.90
22002;DHT22;11165;51.278;12.398;2022-10-14T05:20:24;12.70;99.90
22002;DHT22;11165;51.278;12.398;2022-10-14T05:22:49;12.60;99.90
22002;DHT22;11165;51.278;12.398;2022-10-14T05:25:15;12.60;99.90
22002;DHT22;11165;51.278;12.398;2022-10-14T05:27:41;12.50;99.90
22002;DHT22;11165;51.278;12.398;2022-10-14T05:30:07;12.40;99.90
22002;DHT22;11165;51.278;12.398;2022-10-14T05:32:33;12.40;99.90
22002;DHT22;11165;51.278;12.398;2022-10-14T05:34:58;12.40;99.90
22002;DHT22;11165;51.278;12.398;2022-10-14T05:37:24;12.30;99.90
22002;DHT22;11165;51.278;12.398;2022-10-14T05:39:49;12.30;99.90
22002;DHT22;11165;51.278;12.398;2022-10-14T05:42:14;12.40;99.90
22002;DHT22;11165;51.278;12.398;2022-10-14T05:44:40;12.40;99.90
22002;DHT22;11165;51.278;12.398;2022-10-14T05:47:06;12.30;99.90
22002;DHT22;11165;51.278;12.398;2022-10-14T05:49:31;12.30;99.90
22002;DHT22;11165;51.278;12.398;2022-10-14T05:51:56;12.30;99.90
22002;DHT22;11165;51.278;12.398;2022-10-14T05:54:22;11.80;99.90
22002;DHT22;11165;51.278;12.398;2022-10-14T05:56:47;11.80;99.90
22002;DHT22;11165;51.278;12.398;2022-10-14T05:59:13;11.50;99.90
22002;DHT22;11165;51.278;12.398;2022-10-14T06:01:39;11.50;99.90
22002;DHT22;11165;51.278;12.398;2022-10-14T06:04:05;11.60;99.90
22002;DHT22;11165;51.278;12.398;2022-10-14T06:06:30;11.50;99.90
22002;DHT22;11165;51.278;12.398;2022-10-14T06:08:56;11.50;99.90
22002;DHT22;11165;51.278;12.398;2022-10-14T06:11:22;11.40;99.90
22002;DHT22;11165;51.278;12.398;2022-10-14T06:13:48;11.50;99.90
22002;DHT22;11165;51.278;12.398;2022-10-14T06:16:13;11.50;99.90
22002;DHT22;11165;51.278;12.398;2022-10-14T06:18:39;11.60;99.90
22002;DHT22;11165;51.278;12.398;2022-10-14T06:21:05;11.70;99.90
22002;DHT22;11165;51.278;12.398;2022-10-14T06:23:31;11.70;99.90
22002;DHT22;11165;51.278;12.398;2022-10-14T06:25:57;11.80;99.90
22002;DHT22;11165;51.278;12.398;2022-10-14T06:28:22;11.90;99.90
22002;DHT22;11165;51.278;12.398;2022-10-14T06:30:49;12.00;99.90
22002;DHT22;11165;51.278;12.398;2022-10-14T06:33:15;12.20;99.90
22002;DHT22;11165;51.278;12.398;2022-10-14T06:35:40;12.30;99.90
22002;DHT22;11165;51.278;12.398;2022-10-14T06:38:06;12.30;99.90
22002;DHT22;11165;51.278;12.398;2022-10-14T06:40:31;12.40;99.90
22002;DHT22;11165;51.278;12.398;2022-10-14T06:42:58;12.40;99.90
22002;DHT22;11165;51.278;12.398;2022-10-14T06:45:23;12.60;99.90
22002;DHT22;11165;51.278;12.398;2022-10-14T06:47:49;12.70;99.90
22002;DHT22;11165;51.278;12.398;2022-10-14T06:50:15;12.70;99.90
22002;DHT22;11165;51.278;12.398;2022-10-14T06:52:40;12.90;99.90
22002;DHT22;11165;51.278;12.398;2022-10-14T06:55:06;13.10;99.90
22002;DHT22;11165;51.278;12.398;2022-10-14T06:57:31;13.20;99.90
22002;DHT22;11165;51.278;12.398;2022-10-14T06:59:57;13.40;99.90
22002;DHT22;11165;51.278;12.398;2022-10-14T07:02:22;13.40;99.90
22002;DHT22;11165;51.278;12.398;2022-10-14T07:04:48;13.50;99.90
22002;DHT22;11165;51.278;12.398;2022-10-14T07:07:13;13.50;99.90
22002;DHT22;11165;51.278;12.398;2022-10-14T07:09:39;13.50;99.90
22002;DHT22;11165;51.278;12.398;2022-10-14T07:12:04;13.60;99.90
22002;DHT22;11165;51.278;12.398;2022-10-14T07:14:30;13.60;99.90
22002;DHT22;11165;51.278;12.398;2022-10-14T07:16:56;13.70;99.90
22002;DHT22;11165;51.278;12.398;2022-10-14T07:19:21;13.70;99.90
22002;DHT22;11165;51.278;12.398;2022-10-14T07:21:47;13.80;99.90
22002;DHT22;11165;51.278;12.398;2022-10-14T07:24:12;13.80;99.90
22002;DHT22;11165;51.278;12.398;2022-10-14T07:26:38;14.00;99.90
22002;DHT22;11165;51.278;12.398;2022-10-14T07:29:04;14.00;99.90
22002;DHT22;11165;51.278;12.398;2022-10-14T07:31:29;14.00;99.90
22002;DHT22;11165;51.278;12.398;2022-10-14T07:33:55;14.10;99.90
22002;DHT22;11165;51.278;12.398;2022-10-14T07:36:21;14.10;99.90
22002;DHT22;11165;51.278;12.398;2022-10-14T07:38:46;14.30;99.90
22002;DHT22;11165;51.278;12.398;2022-10-14T07:41:15;14.30;99.90
22002;DHT22;11165;51.278;12.398;2022-10-14T07:43:45;14.40;99.90
22002;DHT22;11165;51.278;12.398;2022-10-14T07:46:11;14.50;99.90
22002;DHT22;11165;51.278;12.398;2022-10-14T07:48:38;14.60;99.90
22002;DHT22;11165;51.278;12.398;2022-10-14T07:51:06;14.60;99.90
22002;DHT22;11165;51.278;12.398;2022-10-14T07:53:31;14.70;99.90
22002;DHT22;11165;51.278;12.398;2022-10-14T07:55:57;14.70;99.90
22002;DHT22;11165;51.278;12.398;2022-10-14T07:58:27;14.70;99.90
22002;DHT22;11165;51.278;12.398;2022-10-14T08:00:53;14.80;99.90
22002;DHT22;11165;51.278;12.398;2022-10-14T08:03:20;14.90;99.90
22002;DHT22;11165;51.278;12.398;2022-10-14T08:05:46;14.90;99.90
22002;DHT22;11165;51.278;12.398;2022-10-14T08:08:12;14.90;99.90
22002;DHT22;11165;51.278;12.398;2022-10-14T08:10:38;15.00;99.90
22002;DHT22;11165;51.278;12.398;2022-10-14T08:13:04;14.90;99.90
22002;DHT22;11165;51.278;12.398;2022-10-14T08:15:34;14.90;99.90
22002;DHT22;11165;51.278;12.398;2022-10-14T08:18:03;15.00;99.90
22002;DHT22;11165;51.278;12.398;2022-10-14T08:20:30;15.00;99.90
22002;DHT22;11165;51.278;12.398;2022-10-14T08:22:56;15.00;99.90
22002;DHT22;11165;51.278;12.398;2022-10-14T08:25:22;15.10;99.90
22002;DHT22;11165;51.278;12.398;2022-10-14T08:27:49;15.20;99.90
22002;DHT22;11165;51.278;12.398;2022-10-14T08:30:15;15.30;99.90
22002;DHT22;11165;51.278;12.398;2022-10-14T08:32:41;15.30;99.90
22002;DHT22;11165;51.278;12.398;2022-10-14T08:35:07;15.30;99.90
22002;DHT22;11165;51.278;12.398;2022-10-14T08:37:33;15.30;99.90
22002;DHT22;11165;51.278;12.398;2022-10-14T08:39:58;15.30;99.90
22002;DHT22;11165;51.278;12.398;2022-10-14T08:45:20;15.30;99.90
22002;DHT22;11165;51.278;12.398;2022-10-14T08:47:47;15.30;99.90
22002;DHT22;11165;51.278;12.398;2022-10-14T08:53:13;15.30;99.90
22002;DHT22;11165;51.278;12.398;2022-10-14T08:55:40;15.30;99.90
22002;DHT22;11165;51.278;12.398;2022-10-14T08:58:24;15.30;99.90
22002;DHT22;11165;51.278;12.398;2022-10-14T09:00:53;15.30;99.90
22002;DHT22;11165;51.278;12.398;2022-10-14T09:03:23;15.30;99.90
22002;DHT22;11165;51.278;12.398;2022-10-14T09:05:59;15.30;99.90
22002;DHT22;11165;51.278;12.398;2022-10-14T09:08:34;15.30;99.90
22002;DHT22;11165;51.278;12.398;2022-10-14T09:11:04;15.30;99.90
22002;DHT22;11165;51.278;12.398;2022-10-14T09:13:35;15.30;99.90
22002;DHT22;11165;51.278;12.398;2022-10-14T09:16:05;15.30;99.90
22002;DHT22;11165;51.278;12.398;2022-10-14T09:18:41;15.40;99.90
22002;DHT22;11165;51.278;12.398;2022-10-14T09:24:11;15.50;99.90
22002;DHT22;11165;51.278;12.398;2022-10-14T09:26:43;15.60;99.90
22002;DHT22;11165;51.278;12.398;2022-10-14T09:32:11;15.70;99.90
22002;DHT22;11165;51.278;12.398;2022-10-14T09:34:40;15.80;99.90
22002;DHT22;11165;51.278;12.398;2022-10-14T09:37:41;15.90;99.90
22002;DHT22;11165;51.278;12.398;2022-10-14T09:40:24;16.10;99.90
22002;DHT22;11165;51.278;12.398;2022-10-14T09:42:55;16.30;99.90
22002;DHT22;11165;51.278;12.398;2022-10-14T09:45:24;16.60;99.90
22002;DHT22;11165;51.278;12.398;2022-10-14T09:47:58;16.60;99.90
22002;DHT22;11165;51.278;12.398;2022-10-14T09:50:52;16.90;99.90
22002;DHT22;11165;51.278;12.398;2022-10-14T09:53:26;17.20;99.90
22002;DHT22;11165;51.278;12.398;2022-10-14T09:55:56;17.20;99.90
22002;DHT22;11165;51.278;12.398;2022-10-14T09:58:40;17.20;99.90
22002;DHT22;11165;51.278;12.398;2022-10-14T10:01:14;17.10;99.90
22002;DHT22;11165;51.278;12.398;2022-10-14T10:03:40;17.40;99.90
22002;DHT22;11165;51.278;12.398;2022-10-14T10:06:14;17.50;99.90
22002;DHT22;11165;51.278;12.398;2022-10-14T10:13:54;17.70;99.90
22002;DHT22;11165;51.278;12.398;2022-10-14T10:16:24;17.80;99.90
22002;DHT22;11165;51.278;12.398;2022-10-14T10:18:51;17.90;99.90
22002;DHT22;11165;51.278;12.398;2022-10-14T10:21:26;17.90;99.90
22002;DHT22;11165;51.278;12.398;2022-10-14T10:23:57;17.90;99.90
22002;DHT22;11165;51.278;12.398;2022-10-14T10:26:33;17.70;99.90
22002;DHT22;11165;51.278;12.398;2022-10-14T10:29:01;17.60;99.90
22002;DHT22;11165;51.278;12.398;2022-10-14T10:31:56;17.60;99.90
22002;DHT22;11165;51.278;12.398;2022-10-14T10:37:25;17.50;99.90
22002;DHT22;11165;51.278;12.398;2022-10-14T10:45:56;17.30;99.90
22002;DHT22;11165;51.278;12.398;2022-10-14T10:48:40;17.30;99.90
22002;DHT22;11165;51.278;12.398;2022-10-14T10:51:24;17.30;99.90
22002;DHT22;11165;51.278;12.398;2022-10-14T10:56:48;17.20;99.90
22002;DHT22;11165;51.278;12.398;2022-10-14T11:01:55;17.30;99.90
22002;DHT22;11165;51.278;12.398;2022-10-14T11:18:38;17.20;99.90
22002;DHT22;11165;51.278;12.398;2022-10-14T11:21:35;17.30;99.90
22002;DHT22;11165;51.278;12.398;2022-10-14T11:24:08;17.40;99.90
22002;DHT22;11165;51.278;12.398;2022-10-14T11:41:05;17.40;99.90
22002;DHT22;11165;51.278;12.398;2022-10-14T11:43:57;17.40;99.90
22002;DHT22;11165;51.278;12.398;2022-10-14T11:46:32;17.50;99.90
22002;DHT22;11165;51.278;12.398;2022-10-14T11:49:13;17.50;99.90
22002;DHT22;11165;51.278;12.398;2022-10-14T11:51:48;17.70;99.90
22002;DHT22;11165;51.278;12.398;2022-10-14T11:57:04;17.60;99.90
22002;DHT22;11165;51.278;12.398;2022-10-14T11:59:47;17.70;99.90
22002;DHT22;11165;51.278;12.398;2022-10-14T12:11:26;17.80;99.90
22002;DHT22;11165;51.278;12.398;2022-10-14T12:16:40;17.70;99.90
22002;DHT22;11165;51.278;12.398;2022-10-14T12:19:09;17.90;99.90
22002;DHT22;11165;51.278;12.398;2022-10-14T12:22:15;18.10;99.90
22002;DHT22;11165;51.278;12.398;2022-10-14T12:24:38;18.30;99.90
22002;DHT22;11165;51.278;12.398;2022-10-14T12:27:07;18.30;99.90
22002;DHT22;11165;51.278;12.398;2022-10-14T12:29:40;18.40;99.90
22002;DHT22;11165;51.278;12.398;2022-10-14T12:34:50;18.50;99.90
22002;DHT22;11165;51.278;12.398;2022-10-14T12:42:55;18.10;99.90
22002;DHT22;11165;51.278;12.398;2022-10-14T12:45:26;18.10;99.90
22002;DHT22;11165;51.278;12.398;2022-10-14T12:48:16;18.10;99.90
22002;DHT22;11165;51.278;12.398;2022-10-14T12:50:46;18.10;99.90
22002;DHT22;11165;51.278;12.398;2022-10-14T12:53:17;18.10;99.90
22002;DHT22;11165;51.278;12.398;2022-10-14T12:58:37;18.00;99.90
22002;DHT22;11165;51.278;12.398;2022-10-14T13:01:15;18.10;99.90
22002;DHT22;11165;51.278;12.398;2022-10-14T13:03:44;18.10;99.90
22002;DHT22;11165;51.278;12.398;2022-10-14T13:06:33;18.00;99.90
22002;DHT22;11165;51.278;12.398;2022-10-14T13:11:41;18.00;99.90
22002;DHT22;11165;51.278;12.398;2022-10-14T13:14:21;18.00;99.90
22002;DHT22;11165;51.278;12.398;2022-10-14T13:16:55;18.00;99.90
22002;DHT22;11165;51.278;12.398;2022-10-14T13:21:59;18.30;99.90
22002;DHT22;11165;51.278;12.398;2022-10-14T13:24:37;18.40;99.90
22002;DHT22;11165;51.278;12.398;2022-10-14T13:27:44;18.60;99.90
22002;DHT22;11165;51.278;12.398;2022-10-14T13:30:26;18.70;99.90
22002;DHT22;11165;51.278;12.398;2022-10-14T13:32:58;18.80;99.90
22002;DHT22;11165;51.278;12.398;2022-10-14T13:35:34;18.90;99.90
22002;DHT22;11165;51.278;12.398;2022-10-14T13:38:13;18.80;99.90
22002;DHT22;11165;51.278;12.398;2022-10-14T13:40:44;18.70;99.90
22002;DHT22;11165;51.278;12.398;2022-10-14T13:43:25;18.50;99.90
22002;DHT22;11165;51.278;12.398;2022-10-14T13:45:56;18.30;99.90
22002;DHT22;11165;51.278;12.398;2022-10-14T13:53:56;17.90;99.90
22002;DHT22;11165;51.278;12.398;2022-10-14T13:56:27;17.80;99.90
22002;DHT22;11165;51.278;12.398;2022-10-14T13:58:53;17.80;99.90
22002;DHT22;11165;51.278;12.398;2022-10-14T14:01:27;17.80;99.90
22002;DHT22;11165;51.278;12.398;2022-10-14T14:03:56;17.90;99.90
22002;DHT22;11165;51.278;12.398;2022-10-14T14:06:24;18.00;99.90
22002;DHT22;11165;51.278;12.398;2022-10-14T14:08:51;18.00;99.90
22002;DHT22;11165;51.278;12.398;2022-10-14T14:11:22;18.00;99.90
22002;DHT22;11165;51.278;12.398;2022-10-14T14:14:37;18.00;99.90
22002;DHT22;11165;51.278;12.398;2022-10-14T14:16:40;18.00;99.90
22002;DHT22;11165;51.278;12.398;2022-10-14T14:19:19;17.90;99.90
22002;DHT22;11165;51.278;12.398;2022-10-14T14:21:45;17.90;99.90
22002;DHT22;11165;51.278;12.398;2022-10-14T14:24:24;17.90;99.90
22002;DHT22;11165;51.278;12.398;2022-10-14T14:26:53;17.90;99.90
22002;DHT22;11165;51.278;12.398;2022-10-14T14:29:23;17.80;99.90
22002;DHT22;11165;51.278;12.398;2022-10-14T14:31:50;17.70;99.90
22002;DHT22;11165;51.278;12.398;2022-10-14T14:34:18;17.60;99.90
22002;DHT22;11165;51.278;12.398;2022-10-14T14:36:45;17.60;99.90
22002;DHT22;11165;51.278;12.398;2022-10-14T14:39:29;17.50;99.90
22002;DHT22;11165;51.278;12.398;2022-10-14T14:41:57;17.50;99.90
22002;DHT22;11165;51.278;12.398;2022-10-14T14:44:26;17.50;99.90
22002;DHT22;11165;51.278;12.398;2022-10-14T14:46:55;17.50;99.90
22002;DHT22;11165;51.278;12.398;2022-10-14T14:49:32;17.50;99.90
22002;DHT22;11165;51.278;12.398;2022-10-14T14:51:59;17.50;99.90
22002;DHT22;11165;51.278;12.398;2022-10-14T14:54:25;17.50;99.90
22002;DHT22;11165;51.278;12.398;2022-10-14T14:57:02;17.50;99.90
22002;DHT22;11165;51.278;12.398;2022-10-14T14:59:31;17.40;99.90
22002;DHT22;11165;51.278;12.398;2022-10-14T15:02:01;17.50;99.90
22002;DHT22;11165;51.278;12.398;2022-10-14T15:04:32;17.50;99.90
22002;DHT22;11165;51.278;12.398;2022-10-14T15:07:15;17.60;99.90
22002;DHT22;11165;51.278;12.398;2022-10-14T15:09:48;17.60;99.90
22002;DHT22;11165;51.278;12.398;2022-10-14T15:12:24;17.60;99.90
22002;DHT22;11165;51.278;12.398;2022-10-14T15:14:55;17.60;99.90
22002;DHT22;11165;51.278;12.398;2022-10-14T15:17:34;17.50;99.90
22002;DHT22;11165;51.278;12.398;2022-10-14T15:22:39;17.40;99.90
22002;DHT22;11165;51.278;12.398;2022-10-14T15:25:21;17.30;99.90
22002;DHT22;11165;51.278;12.398;2022-10-14T15:27:51;17.30;99.90
22002;DHT22;11165;51.278;12.398;2022-10-14T15:30:34;17.20;99.90
22002;DHT22;11165;51.278;12.398;2022-10-14T15:33:20;17.20;99.90
22002;DHT22;11165;51.278;12.398;2022-10-14T15:35:59;17.10;99.90
22002;DHT22;11165;51.278;12.398;2022-10-14T15:38:26;17.10;99.90
22002;DHT22;11165;51.278;12.398;2022-10-14T15:40:51;17.10;99.90
22002;DHT22;11165;51.278;12.398;2022-10-14T15:43:23;17.10;99.90
22002;DHT22;11165;51.278;12.398;2022-10-14T15:45:51;17.00;99.90
22002;DHT22;11165;51.278;12.398;2022-10-14T15:48:38;16.90;99.90
22002;DHT22;11165;51.278;12.398;2022-10-14T15:51:05;16.90;99.90
22002;DHT22;11165;51.278;12.398;2022-10-14T15:53:31;16.80;99.90
22002;DHT22;11165;51.278;12.398;2022-10-14T15:55:57;16.80;99.90
22002;DHT22;11165;51.278;12.398;2022-10-14T15:58:24;16.70;99.90
22002;DHT22;11165;51.278;12.398;2022-10-14T16:00:50;16.70;99.90
22002;DHT22;11165;51.278;12.398;2022-10-14T16:03:16;16.70;99.90
22002;DHT22;11165;51.278;12.398;2022-10-14T16:05:43;16.70;99.90
22002;DHT22;11165;51.278;12.398;2022-10-14T16:08:12;16.70;99.90
22002;DHT22;11165;51.278;12.398;2022-10-14T16:10:39;16.70;99.90
22002;DHT22;11165;51.278;12.398;2022-10-14T16:13:08;16.60;99.90
22002;DHT22;11165;51.278;12.398;2022-10-14T16:15:49;16.60;99.90
22002;DHT22;11165;51.278;12.398;2022-10-14T16:18:16;16.60;99.90
22002;DHT22;11165;51.278;12.398;2022-10-14T16:20:43;16.50;99.90
22002;DHT22;11165;51.278;12.398;2022-10-14T16:23:14;16.40;99.90
22002;DHT22;11165;51.278;12.398;2022-10-14T16:25:42;16.40;99.90
22002;DHT22;11165;51.278;12.398;2022-10-14T16:28:10;16.40;99.90
22002;DHT22;11165;51.278;12.398;2022-10-14T16:30:38;16.40;99.90
22002;DHT22;11165;51.278;12.398;2022-10-14T16:33:04;16.30;99.90
22002;DHT22;11165;51.278;12.398;2022-10-14T16:35:30;16.30;99.90
22002;DHT22;11165;51.278;12.398;2022-10-14T16:37:56;16.20;99.90
22002;DHT22;11165;51.278;12.398;2022-10-14T16:40:22;16.10;99.90
22002;DHT22;11165;51.278;12.398;2022-10-14T16:42:47;16.10;99.90
22002;DHT22;11165;51.278;12.398;2022-10-14T16:45:13;16.10;99.90
22002;DHT22;11165;51.278;12.398;2022-10-14T16:47:39;16.00;99.90
22002;DHT22;11165;51.278;12.398;2022-10-14T16:50:06;15.90;99.90
22002;DHT22;11165;51.278;12.398;2022-10-14T16:52:33;15.90;99.90
22002;DHT22;11165;51.278;12.398;2022-10-14T16:55:20;15.90;99.90
22002;DHT22;11165;51.278;12.398;2022-10-14T16:57:46;16.00;99.90
22002;DHT22;11165;51.278;12.398;2022-10-14T17:00:13;15.90;99.90
22002;DHT22;11165;51.278;12.398;2022-10-14T17:02:38;15.90;99.90
22002;DHT22;11165;51.278;12.398;2022-10-14T17:05:04;15.90;99.90
22002;DHT22;11165;51.278;12.398;2022-10-14T17:07:30;15.90;99.90
22002;DHT22;11165;51.278;12.398;2022-10-14T17:09:58;15.90;99.90
22002;DHT22;11165;51.278;12.398;2022-10-14T17:12:23;15.90;99.90
22002;DHT22;11165;51.278;12.398;2022-10-14T17:14:49;15.90;99.90
22002;DHT22;11165;51.278;12.398;2022-10-14T17:17:15;16.00;99.90
22002;DHT22;11165;51.278;12.398;2022-10-14T17:19:40;16.00;99.90
22002;DHT22;11165;51.278;12.398;2022-10-14T17:22:07;15.90;99.90